Time;durP1;ratioP1;P1;durP2;ratioP2;P2;SDS_P1;SDS_P2;PMS_P1;PMS_P2;Temp;Humidity;BMP_temperature;BMP_pressure;BME280_temperature;BME280_humidity;BME280_pressure;Samples;Min_cycle;Max_cycle;Signal;HPM_P1;HPM_P2
2022/05/31 00:01:51;;;;;;;4.22;2.58;;;10.00;99.90;;;;;;4887377;29;20041;-80
2022/05/31 00:04:17;;;;;;;5.53;2.58;;;10.00;99.90;;;;;;4897104;29;20053;-80
2022/05/31 00:06:44;;;;;;;4.40;2.65;;;10.00;99.90;;;;;;4886971;29;20091;-80
2022/05/31 00:09:10;;;;;;;3.97;2.95;;;9.90;99.90;;;;;;4900589;29;20157;-80
2022/05/31 00:11:37;;;;;;;4.30;2.50;;;10.10;99.90;;;;;;4898841;29;20119;-80
2022/05/31 00:14:05;;;;;;;4.20;2.92;;;9.90;99.90;;;;;;4884004;29;20036;-80
2022/05/31 00:16:31;;;;;;;5.65;2.90;;;9.80;99.90;;;;;;4869781;29;20100;-80
2022/05/31 00:18:56;;;;;;;3.90;2.90;;;9.80;99.90;;;;;;4875955;29;20040;-80
2022/05/31 00:21:37;;;;;;;4.82;2.70;;;9.80;99.90;;;;;;4900195;29;20400;-80
2022/05/31 00:24:05;;;;;;;3.13;2.55;;;9.70;99.90;;;;;;4901677;29;20468;-80
2022/05/31 00:26:31;;;;;;;3.92;2.60;;;9.70;99.90;;;;;;4867384;29;20062;-80
2022/05/31 00:28:56;;;;;;;4.65;2.58;;;9.70;99.90;;;;;;4885758;29;20730;-80
2022/05/31 00:31:23;;;;;;;2.97;2.60;;;9.60;99.90;;;;;;4900065;29;20154;-80
2022/05/31 00:33:49;;;;;;;4.20;2.88;;;9.60;99.90;;;;;;4884690;29;20092;-80
2022/05/31 00:36:16;;;;;;;3.78;2.90;;;9.60;99.90;;;;;;4884529;29;20032;-80
2022/05/31 00:38:42;;;;;;;3.17;2.65;;;9.60;99.90;;;;;;4884580;29;20040;-80
2022/05/31 00:41:23;;;;;;;4.07;2.63;;;9.50;99.90;;;;;;4898820;29;20048;-80
2022/05/31 00:43:50;;;;;;;4.45;2.80;;;9.50;99.90;;;;;;4899903;29;20511;-80
2022/05/31 00:46:17;;;;;;;7.28;2.90;;;9.50;99.90;;;;;;4893618;29;20528;-80
2022/05/31 00:48:51;;;;;;;3.13;2.83;;;9.50;99.90;;;;;;4895498;29;20061;-80
2022/05/31 00:51:19;;;;;;;4.45;2.90;;;9.50;99.90;;;;;;4899032;29;20040;-79
2022/05/31 00:53:49;;;;;;;4.03;2.72;;;9.40;99.90;;;;;;4904695;29;20048;-79
2022/05/31 00:56:24;;;;;;;4.20;2.47;;;9.40;99.90;;;;;;4880182;29;20036;-80
2022/05/31 00:59:08;;;;;;;3.95;2.70;;;9.50;99.90;;;;;;4907178;29;20072;-80
2022/05/31 01:01:38;;;;;;;4.32;3.00;;;9.40;99.90;;;;;;4897381;29;20036;-80
2022/05/31 01:04:04;;;;;;;4.78;2.85;;;9.30;99.90;;;;;;4898097;29;20036;-80
2022/05/31 01:06:30;;;;;;;3.63;2.78;;;9.30;99.90;;;;;;4882062;29;20437;-80
2022/05/31 01:08:57;;;;;;;4.40;3.10;;;9.30;99.90;;;;;;4900535;29;20124;-80
2022/05/31 01:11:27;;;;;;;5.10;2.92;;;9.30;99.90;;;;;;4888659;29;20041;-80
2022/05/31 01:13:54;;;;;;;4.63;2.83;;;9.30;99.90;;;;;;4900409;29;20489;-80
2022/05/31 01:16:21;;;;;;;3.97;2.70;;;9.30;99.90;;;;;;4884307;29;20103;-80
2022/05/31 01:18:46;;;;;;;3.80;3.00;;;9.30;99.90;;;;;;4899767;29;20047;-80
2022/05/31 01:21:12;;;;;;;3.55;2.80;;;9.30;99.90;;;;;;4881316;29;20049;-80
2022/05/31 01:23:47;;;;;;;3.47;2.75;;;9.40;99.90;;;;;;4884598;29;20049;-80
2022/05/31 01:26:35;;;;;;;6.65;3.17;;;9.30;99.90;;;;;;4876656;29;20128;-80
2022/05/31 01:29:34;;;;;;;5.00;2.90;;;9.40;99.90;;;;;;4897285;29;20382;-80
2022/05/31 01:32:04;;;;;;;5.88;3.30;;;9.40;99.90;;;;;;4886071;29;20048;-80
2022/05/31 01:34:30;;;;;;;4.40;3.13;;;9.40;99.90;;;;;;4879065;29;20036;-80
2022/05/31 01:36:57;;;;;;;6.03;3.05;;;9.40;99.90;;;;;;4895883;29;20104;-80
2022/05/31 01:39:28;;;;;;;4.07;3.28;;;9.40;99.90;;;;;;4897274;29;20043;-80
2022/05/31 01:42:04;;;;;;;4.53;3.50;;;9.40;99.90;;;;;;4896748;29;20470;-80
2022/05/31 01:44:35;;;;;;;3.85;3.28;;;9.40;99.90;;;;;;4896190;29;20068;-80
2022/05/31 01:47:02;;;;;;;5.10;3.35;;;9.40;99.90;;;;;;4882504;29;20437;-80
2022/05/31 01:49:40;;;;;;;6.10;3.30;;;9.40;99.90;;;;;;4879894;29;20044;-80
2022/05/31 01:52:07;;;;;;;3.72;2.97;;;9.40;99.90;;;;;;4899646;29;20096;-80
2022/05/31 01:54:35;;;;;;;3.95;3.50;;;9.50;99.90;;;;;;4884523;29;20036;-80
2022/05/31 01:57:04;;;;;;;4.60;3.05;;;9.50;99.90;;;;;;4896830;29;20115;-80
2022/05/31 01:59:34;;;;;;;5.30;3.40;;;9.50;99.90;;;;;;4881460;29;20055;-80
2022/05/31 02:02:02;;;;;;;4.50;3.42;;;9.50;99.90;;;;;;4877441;29;20555;-80
2022/05/31 02:04:28;;;;;;;4.78;3.40;;;9.50;99.90;;;;;;4884345;29;20036;-80
2022/05/31 02:07:12;;;;;;;5.88;3.22;;;9.50;99.90;;;;;;4880528;29;20047;-80
2022/05/31 02:09:39;;;;;;;4.70;3.47;;;9.50;99.90;;;;;;4889543;29;20040;-80
2022/05/31 02:12:06;;;;;;;5.65;3.33;;;9.50;99.90;;;;;;4883691;29;20071;-80
2022/05/31 02:14:32;;;;;;;4.15;3.40;;;9.50;99.90;;;;;;4879984;29;20043;-80
2022/05/31 02:16:58;;;;;;;5.35;3.65;;;9.50;99.90;;;;;;4883762;29;20051;-80
2022/05/31 02:19:25;;;;;;;3.80;3.20;;;9.60;99.90;;;;;;4889143;29;20039;-80
2022/05/31 02:21:57;;;;;;;4.95;3.58;;;9.60;99.90;;;;;;4898579;29;20119;-80
2022/05/31 02:24:24;;;;;;;4.25;3.65;;;9.60;99.90;;;;;;4882892;29;20040;-80
2022/05/31 02:26:51;;;;;;;5.18;3.33;;;9.60;99.90;;;;;;4892427;29;20107;-80
2022/05/31 02:29:21;;;;;;;3.40;3.10;;;9.70;99.90;;;;;;4913629;29;20063;-79
2022/05/31 02:31:47;;;;;;;3.63;3.08;;;9.70;99.90;;;;;;4876677;29;20040;-79
2022/05/31 02:34:14;;;;;;;4.10;3.47;;;9.70;99.90;;;;;;4882064;29;20076;-80
2022/05/31 02:36:40;;;;;;;5.13;3.30;;;9.70;99.90;;;;;;4881539;29;20051;-80
2022/05/31 02:39:06;;;;;;;4.75;3.30;;;9.70;99.90;;;;;;4884460;29;20036;-79
2022/05/31 02:41:32;;;;;;;5.47;3.33;;;9.70;99.90;;;;;;4868625;29;20111;-79
2022/05/31 02:43:59;;;;;;;4.05;3.13;;;9.70;99.90;;;;;;4879243;29;20059;-80
2022/05/31 02:46:26;;;;;;;5.47;3.30;;;9.70;99.90;;;;;;4878417;29;20431;-79
2022/05/31 02:48:52;;;;;;;4.90;3.60;;;9.80;99.90;;;;;;4877830;29;20063;-79
2022/05/31 02:51:18;;;;;;;4.18;3.40;;;10.20;99.90;;;;;;4853397;29;20056;-79
2022/05/31 02:53:44;;;;;;;4.95;3.72;;;10.50;99.90;;;;;;4898406;29;20128;-80
2022/05/31 02:56:10;;;;;;;5.43;3.40;;;9.70;99.90;;;;;;4885872;29;20123;-79
2022/05/31 02:58:35;;;;;;;6.28;4.45;;;9.70;99.90;;;;;;4906494;29;20048;-79
2022/05/31 03:01:16;;;;;;;4.25;3.58;;;9.80;99.90;;;;;;4885394;29;20040;-79
2022/05/31 03:03:42;;;;;;;4.72;3.40;;;9.80;99.90;;;;;;4905353;29;20098;-79
2022/05/31 03:06:08;;;;;;;4.43;3.30;;;10.50;99.90;;;;;;4893268;29;20397;-79
2022/05/31 03:08:33;;;;;;;3.88;3.17;;;9.80;99.90;;;;;;4887648;29;20166;-79
2022/05/31 03:11:00;;;;;;;3.70;3.22;;;9.80;99.90;;;;;;4870764;29;20123;-80
2022/05/31 03:13:28;;;;;;;5.93;3.45;;;9.80;99.90;;;;;;4856611;29;20052;-80
2022/05/31 03:15:59;;;;;;;5.13;3.50;;;9.80;99.90;;;;;;4901672;29;20135;-80
2022/05/31 03:18:29;;;;;;;5.07;3.70;;;9.70;99.90;;;;;;4881153;29;20206;-79
2022/05/31 03:20:57;;;;;;;4.45;3.22;;;9.80;99.90;;;;;;4875955;29;20469;-80
2022/05/31 03:23:29;;;;;;;4.28;3.15;;;9.80;99.90;;;;;;4884039;29;20048;-79
2022/05/31 03:26:00;;;;;;;6.45;3.25;;;9.80;99.90;;;;;;4896384;29;20048;-79
2022/05/31 03:28:26;;;;;;;6.38;3.40;;;9.80;99.90;;;;;;4899772;29;20058;-80
2022/05/31 03:30:52;;;;;;;4.78;3.75;;;9.80;99.90;;;;;;4886308;29;20408;-80
2022/05/31 03:33:18;;;;;;;4.47;3.20;;;9.90;99.90;;;;;;4888327;29;20453;-79
2022/05/31 03:35:44;;;;;;;6.97;3.20;;;9.80;99.90;;;;;;4890196;29;20044;-79
2022/05/31 03:38:10;;;;;;;7.07;3.22;;;9.90;99.90;;;;;;4892346;29;20055;-79
2022/05/31 03:43:20;;;;;;;5.53;3.30;;;9.80;99.90;;;;;;4905627;29;20453;-80
2022/05/31 03:45:46;;;;;;;6.15;3.47;;;9.90;99.90;;;;;;4884202;29;20115;-79
2022/05/31 03:48:12;;;;;;;4.68;3.33;;;9.90;99.90;;;;;;4890468;29;20127;-79
2022/05/31 03:50:39;;;;;;;4.63;3.70;;;9.90;99.90;;;;;;4884114;29;20406;-79
2022/05/31 03:53:07;;;;;;;3.70;3.35;;;9.90;99.90;;;;;;4890111;29;20044;-79
2022/05/31 03:55:36;;;;;;;3.75;3.15;;;9.90;99.90;;;;;;4881190;29;20041;-79
2022/05/31 03:58:03;;;;;;;4.30;3.70;;;9.90;99.90;;;;;;4886359;29;20044;-80
2022/05/31 04:00:29;;;;;;;4.68;3.50;;;9.90;99.90;;;;;;4902406;29;20120;-79
2022/05/31 04:02:55;;;;;;;6.43;3.83;;;9.90;99.90;;;;;;4882829;29;20075;-79
2022/05/31 04:05:21;;;;;;;5.00;3.30;;;9.90;99.90;;;;;;4887121;29;20047;-80
2022/05/31 04:07:54;;;;;;;5.00;3.97;;;9.90;99.90;;;;;;4884857;29;20066;-79
2022/05/31 04:10:21;;;;;;;6.72;3.72;;;9.90;99.90;;;;;;4875563;29;20064;-79
2022/05/31 04:12:47;;;;;;;4.32;3.22;;;9.90;99.90;;;;;;4871292;29;20043;-80
2022/05/31 04:15:13;;;;;;;5.97;3.85;;;9.90;99.90;;;;;;4898077;29;20040;-79
2022/05/31 04:17:39;;;;;;;5.75;3.55;;;9.90;99.90;;;;;;4894050;29;20094;-80
2022/05/31 04:20:06;;;;;;;5.75;3.72;;;10.00;99.90;;;;;;4887000;29;20381;-80
2022/05/31 04:22:32;;;;;;;4.22;3.72;;;10.00;99.90;;;;;;4898184;29;20044;-80
2022/05/31 04:25:01;;;;;;;3.45;3.10;;;10.00;99.90;;;;;;4896626;29;20044;-80
2022/05/31 04:27:27;;;;;;;4.18;3.47;;;10.00;99.90;;;;;;4884916;29;20501;-80
2022/05/31 04:29:53;;;;;;;5.20;3.55;;;10.00;99.90;;;;;;4906046;29;20103;-80
2022/05/31 04:32:19;;;;;;;4.97;3.40;;;10.10;99.90;;;;;;4871812;29;20051;-81
2022/05/31 04:34:45;;;;;;;4.25;3.63;;;10.10;99.90;;;;;;4906323;29;20090;-80
2022/05/31 04:37:12;;;;;;;7.28;3.70;;;10.10;99.90;;;;;;4884058;29;20075;-80
2022/05/31 04:39:37;;;;;;;4.82;3.58;;;10.10;99.90;;;;;;4885971;29;20048;-80
2022/05/31 04:42:04;;;;;;;4.65;3.60;;;10.10;99.90;;;;;;4886590;29;20092;-80
2022/05/31 04:44:29;;;;;;;4.82;3.30;;;10.20;99.90;;;;;;4899889;29;20050;-80
2022/05/31 04:46:55;;;;;;;6.32;3.50;;;10.20;99.90;;;;;;4887469;29;20052;-80
2022/05/31 04:49:21;;;;;;;4.82;3.42;;;10.20;99.90;;;;;;4905596;29;20051;-80
2022/05/31 04:51:47;;;;;;;5.10;3.40;;;10.20;99.90;;;;;;4884244;29;20103;-80
2022/05/31 04:54:13;;;;;;;4.80;3.35;;;10.20;99.90;;;;;;4870305;29;20044;-80
2022/05/31 04:56:39;;;;;;;4.72;2.85;;;10.20;99.90;;;;;;4858725;29;20131;-80
2022/05/31 04:59:05;;;;;;;3.80;3.30;;;10.30;99.90;;;;;;4867874;29;20529;-80
2022/05/31 05:01:34;;;;;;;4.10;3.30;;;10.20;99.90;;;;;;4898843;29;20047;-80
2022/05/31 05:03:59;;;;;;;3.30;3.00;;;10.30;99.90;;;;;;4900741;29;20051;-80
2022/05/31 05:06:25;;;;;;;4.68;3.38;;;10.30;99.90;;;;;;4896378;29;20440;-80
2022/05/31 05:08:52;;;;;;;6.20;3.33;;;11.00;99.90;;;;;;4900121;29;20400;-80
2022/05/31 05:11:21;;;;;;;5.82;3.05;;;10.30;99.90;;;;;;4882341;29;20057;-80
2022/05/31 05:13:47;;;;;;;4.80;3.40;;;10.30;99.90;;;;;;4900308;29;20052;-80
2022/05/31 05:16:14;;;;;;;4.80;3.20;;;10.40;99.90;;;;;;4881490;29;20036;-80
2022/05/31 05:18:40;;;;;;;6.22;3.47;;;10.40;99.90;;;;;;4896440;29;20096;-80
2022/05/31 05:21:08;;;;;;;5.60;3.45;;;10.40;99.90;;;;;;4903670;29;20052;-80
2022/05/31 05:23:34;;;;;;;5.72;3.50;;;10.50;99.90;;;;;;4880536;29;20091;-80
2022/05/31 05:26:00;;;;;;;3.95;3.10;;;10.60;99.90;;;;;;4896213;29;20036;-80
2022/05/31 05:31:33;;;;;;;4.70;3.63;;;10.60;99.90;;;;;;4900658;29;20123;-80
2022/05/31 05:34:00;;;;;;;5.47;3.00;;;10.60;99.90;;;;;;4901451;29;20040;-80
2022/05/31 05:36:27;;;;;;;3.63;3.10;;;10.60;99.90;;;;;;4894361;29;20044;-80
2022/05/31 05:38:53;;;;;;;5.03;3.60;;;10.70;99.90;;;;;;4884186;29;20048;-80
2022/05/31 05:41:20;;;;;;;5.13;3.55;;;10.70;99.90;;;;;;4897948;29;20131;-80
2022/05/31 05:43:46;;;;;;;4.43;3.00;;;10.80;99.90;;;;;;4896908;29;20044;-80
2022/05/31 05:46:22;;;;;;;4.93;3.17;;;10.80;99.90;;;;;;4885896;29;20128;-80
2022/05/31 05:48:49;;;;;;;5.68;3.50;;;10.90;99.90;;;;;;4886032;29;20045;-80
2022/05/31 05:51:19;;;;;;;8.25;3.78;;;10.90;99.90;;;;;;4882190;29;20063;-80
2022/05/31 05:53:45;;;;;;;4.50;2.78;;;11.00;99.90;;;;;;4882486;29;20046;-80
2022/05/31 05:56:12;;;;;;;3.20;2.90;;;11.00;99.90;;;;;;4865371;29;20056;-80
2022/05/31 05:58:39;;;;;;;4.28;3.03;;;11.10;99.90;;;;;;4898054;29;20067;-80
2022/05/31 06:01:09;;;;;;;6.85;2.88;;;11.10;99.90;;;;;;4882900;29;20044;-80
2022/05/31 06:04:09;;;;;;;4.85;3.20;;;11.20;99.90;;;;;;4897259;29;20078;-80
2022/05/31 06:06:36;;;;;;;3.85;2.90;;;11.20;99.90;;;;;;4874281;29;20055;-80
2022/05/31 06:09:09;;;;;;;4.15;3.13;;;11.30;99.90;;;;;;4871365;29;20047;-80
2022/05/31 06:11:38;;;;;;;7.30;3.30;;;11.40;99.90;;;;;;4888076;29;20039;-80
2022/05/31 06:14:07;;;;;;;6.40;3.20;;;11.40;99.90;;;;;;4898344;29;20036;-80
2022/05/31 06:16:35;;;;;;;5.50;3.53;;;11.50;99.90;;;;;;4897563;29;20489;-80
2022/05/31 06:19:06;;;;;;;7.13;3.15;;;11.50;99.90;;;;;;4886966;29;20044;-80
2022/05/31 06:21:32;;;;;;;8.95;3.38;;;11.60;99.90;;;;;;4898011;29;20056;-80
2022/05/31 06:24:00;;;;;;;7.30;3.95;;;11.70;99.90;;;;;;4883994;29;20393;-80
2022/05/31 06:26:28;;;;;;;6.20;3.55;;;11.80;99.90;;;;;;4895248;29;20048;-80
2022/05/31 06:28:54;;;;;;;4.28;2.90;;;11.90;99.90;;;;;;4912983;29;20047;-80
2022/05/31 06:31:19;;;;;;;5.53;2.97;;;12.00;99.90;;;;;;4878847;29;20032;-82
2022/05/31 06:33:45;;;;;;;7.32;2.95;;;12.20;99.90;;;;;;4893744;29;20122;-80
2022/05/31 06:36:11;;;;;;;5.63;3.05;;;12.30;99.90;;;;;;4905506;29;20393;-80
2022/05/31 06:38:36;;;;;;;5.28;3.00;;;12.60;99.90;;;;;;4888374;29;20048;-80
2022/05/31 06:41:04;;;;;;;6.47;2.67;;;12.80;99.90;;;;;;4886009;29;20051;-79
2022/05/31 06:43:30;;;;;;;5.15;2.80;;;13.10;99.90;;;;;;4884939;29;20179;-79
2022/05/31 06:45:56;;;;;;;5.03;3.15;;;13.50;99.90;;;;;;4869478;29;20520;-80
2022/05/31 06:48:22;;;;;;;3.80;2.42;;;13.70;99.90;;;;;;4891612;29;20032;-80
2022/05/31 06:50:48;;;;;;;6.60;3.00;;;13.90;99.90;;;;;;4900015;29;20527;-80
2022/05/31 06:58:44;;;;;;;5.68;2.95;;;14.40;99.90;;;;;;4920933;29;20055;-79
2022/05/31 07:01:09;;;;;;;4.88;2.95;;;14.50;99.90;;;;;;4889412;29;20048;-78
2022/05/31 07:03:36;;;;;;;6.22;3.00;;;14.50;99.90;;;;;;4884240;29;20520;-79
2022/05/31 07:06:02;;;;;;;4.53;3.00;;;14.70;99.90;;;;;;4885621;29;20655;-79
2022/05/31 07:08:28;;;;;;;5.20;2.75;;;14.80;99.90;;;;;;4889505;29;20059;-79
2022/05/31 07:10:54;;;;;;;5.32;2.70;;;14.90;99.90;;;;;;4892579;29;20040;-80
2022/05/31 07:13:21;;;;;;;5.22;2.85;;;15.10;99.90;;;;;;4873940;29;20468;-80
2022/05/31 07:15:47;;;;;;;6.97;2.75;;;15.20;99.90;;;;;;4886443;29;20044;-80
2022/05/31 07:18:13;;;;;;;6.80;3.20;;;15.40;99.90;;;;;;4860855;29;20039;-79
2022/05/31 07:20:38;;;;;;;5.40;3.13;;;15.50;99.90;;;;;;4892290;29;20386;-80
2022/05/31 07:23:04;;;;;;;6.95;3.00;;;15.70;99.90;;;;;;4904663;29;20126;-80
2022/05/31 07:25:30;;;;;;;5.43;2.53;;;15.80;99.90;;;;;;4893901;29;20051;-79
2022/05/31 07:27:56;;;;;;;3.95;2.75;;;16.10;99.90;;;;;;4875235;29;20056;-80
2022/05/31 07:30:21;;;;;;;5.65;2.25;;;16.30;99.90;;;;;;4870120;29;20040;-81
2022/05/31 07:32:47;;;;;;;4.45;2.80;;;16.70;99.90;;;;;;4893164;29;20485;-79
2022/05/31 07:35:13;;;;;;;4.57;2.60;;;17.00;99.90;;;;;;4888073;29;20044;-79
2022/05/31 07:37:39;;;;;;;4.38;2.60;;;17.20;99.90;;;;;;4893004;29;20047;-80
2022/05/31 07:40:05;;;;;;;9.32;3.33;;;17.30;99.90;;;;;;4889653;29;20127;-79
2022/05/31 07:42:31;;;;;;;5.28;3.33;;;17.50;99.90;;;;;;4886911;29;20048;-80
2022/05/31 07:44:57;;;;;;;5.97;3.03;;;17.50;99.30;;;;;;4901821;29;20051;-80
2022/05/31 07:47:24;;;;;;;6.50;2.90;;;17.70;99.90;;;;;;4887099;29;20044;-80
2022/05/31 07:49:50;;;;;;;8.07;3.53;;;17.80;99.90;;;;;;4882040;29;20053;-80
2022/05/31 07:52:16;;;;;;;8.07;2.88;;;18.00;97.90;;;;;;4868405;29;20484;-81
2022/05/31 07:54:42;;;;;;;6.22;3.35;;;18.10;97.90;;;;;;4889545;29;20036;-80
2022/05/31 07:58:30;;;;;;;5.15;3.08;;;18.30;98.50;;;;;;4887742;29;20047;-80
2022/05/31 07:59:53;;;;;;;6.22;3.28;;;18.40;97.90;;;;;;4889124;29;20064;-80
2022/05/31 08:02:19;;;;;;;4.22;2.97;;;18.50;97.90;;;;;;4876424;29;20512;-81
2022/05/31 08:04:45;;;;;;;6.22;2.78;;;18.70;97.30;;;;;;4904291;29;20044;-81
2022/05/31 08:07:10;;;;;;;7.50;2.97;;;18.80;96.50;;;;;;4877046;29;20114;-81
2022/05/31 08:09:36;;;;;;;6.00;3.30;;;18.90;96.00;;;;;;4881431;29;20044;-80
2022/05/31 08:12:07;;;;;;;4.38;2.63;;;19.00;95.40;;;;;;4883729;29;20111;-80
2022/05/31 08:14:34;;;;;;;6.05;3.22;;;19.20;95.30;;;;;;4900748;29;20043;-80
2022/05/31 08:16:59;;;;;;;6.22;3.20;;;19.20;94.10;;;;;;4887650;29;20076;-80
2022/05/31 08:19:25;;;;;;;5.50;3.45;;;19.30;93.60;;;;;;4881803;29;20439;-81
2022/05/31 08:21:51;;;;;;;5.50;3.20;;;19.40;93.50;;;;;;4899717;29;20071;-80
2022/05/31 08:24:17;;;;;;;8.75;3.10;;;19.50;93.00;;;;;;4879639;29;20541;-80
2022/05/31 08:26:42;;;;;;;8.05;2.95;;;19.60;91.70;;;;;;4901459;29;20063;-82
2022/05/31 08:29:09;;;;;;;6.22;2.80;;;19.70;90.80;;;;;;4885135;29;20043;-80
2022/05/31 08:31:36;;;;;;;6.32;3.00;;;19.70;88.40;;;;;;4884165;29;20354;-79
2022/05/31 08:34:04;;;;;;;5.93;2.83;;;19.80;86.60;;;;;;4899260;29;20046;-78
2022/05/31 08:36:30;;;;;;;6.40;2.80;;;19.80;87.10;;;;;;4884207;29;20073;-80
2022/05/31 08:38:56;;;;;;;7.20;3.08;;;19.80;83.60;;;;;;4883202;29;20115;-79
2022/05/31 08:41:27;;;;;;;9.50;3.70;;;19.80;84.90;;;;;;4869028;29;20128;-79
2022/05/31 08:44:06;;;;;;;8.15;3.25;;;19.80;84.70;;;;;;4898587;29;20059;-78
2022/05/31 08:46:53;;;;;;;4.13;2.95;;;20.00;85.20;;;;;;4876710;29;20037;-80
2022/05/31 08:51:52;;;;;;;6.05;3.40;;;20.10;81.00;;;;;;4892927;29;20392;-81
2022/05/31 08:52:24;;;;;;;4.45;2.78;;;20.10;82.10;;;;;;4897771;29;20147;-81
2022/05/31 08:57:50;;;;;;;5.53;2.85;;;20.00;80.90;;;;;;4899869;29;20060;-79
2022/05/31 09:00:25;;;;;;;6.68;2.53;;;19.70;80.10;;;;;;4885971;29;20052;-80
2022/05/31 09:03:01;;;;;;;3.55;2.20;;;19.40;79.90;;;;;;4900452;29;20503;-80
2022/05/31 09:05:40;;;;;;;5.78;2.20;;;19.10;81.00;;;;;;4894595;29;20123;-80
2022/05/31 09:08:16;;;;;;;4.68;2.47;;;18.80;81.20;;;;;;4882711;29;20040;-80
2022/05/31 09:10:58;;;;;;;5.05;2.50;;;18.60;80.30;;;;;;4904987;29;20107;-80
2022/05/31 09:13:29;;;;;;;5.55;2.97;;;18.50;82.10;;;;;;4893239;29;20040;-79
2022/05/31 09:16:32;;;;;;;5.70;2.50;;;18.30;80.80;;;;;;4898380;29;20048;-79
2022/05/31 09:19:05;;;;;;;4.32;2.20;;;18.20;79.90;;;;;;4877966;29;20196;-79
2022/05/31 09:21:38;;;;;;;6.97;3.00;;;17.90;80.70;;;;;;4891504;29;20375;-80
2022/05/31 09:24:12;;;;;;;7.32;3.03;;;17.80;80.20;;;;;;4898998;29;20055;-80
2022/05/31 09:27:06;;;;;;;5.13;2.33;;;17.80;80.10;;;;;;4881265;29;20068;-80
2022/05/31 09:29:58;;;;;;;7.03;2.38;;;17.80;88.10;;;;;;4900310;29;20043;-80
2022/05/31 09:32:50;;;;;;;5.20;2.65;;;17.80;83.20;;;;;;4900887;29;20461;-79
2022/05/31 09:35:44;;;;;;;5.35;2.65;;;17.90;83.70;;;;;;4899885;29;20076;-79
2022/05/31 09:38:31;;;;;;;7.20;2.75;;;17.90;83.30;;;;;;4896638;29;20377;-79
2022/05/31 09:41:10;;;;;;;6.90;3.20;;;17.80;83.40;;;;;;4875880;29;20390;-79
2022/05/31 09:43:49;;;;;;;4.18;2.75;;;17.70;84.40;;;;;;4882056;29;20044;-79
2022/05/31 09:46:51;;;;;;;5.78;2.67;;;17.70;84.60;;;;;;4883046;29;20152;-79
2022/05/31 09:49:27;;;;;;;7.32;2.70;;;17.60;84.80;;;;;;4900099;29;20453;-79
2022/05/31 09:51:53;;;;;;;8.80;2.88;;;17.50;85.10;;;;;;4894688;29;20466;-79
2022/05/31 09:57:13;;;;;;;5.43;2.05;;;17.40;87.90;;;;;;4898151;29;20425;-79
2022/05/31 09:59:47;;;;;;;5.65;2.53;;;17.40;85.40;;;;;;4884489;29;20099;-79
2022/05/31 10:02:24;;;;;;;5.95;2.90;;;17.40;84.60;;;;;;4881822;29;20044;-79
2022/05/31 10:05:04;;;;;;;5.22;2.78;;;17.30;83.90;;;;;;4878115;29;20438;-79
2022/05/31 10:07:36;;;;;;;5.80;2.47;;;17.20;81.10;;;;;;4881779;29;20044;-79
2022/05/31 10:10:15;;;;;;;6.03;2.83;;;17.10;82.60;;;;;;4884186;29;20044;-78
2022/05/31 10:13:09;;;;;;;7.30;2.70;;;17.10;80.50;;;;;;4896535;29;20131;-78
2022/05/31 10:15:44;;;;;;;7.18;2.63;;;17.00;81.90;;;;;;4882982;29;20052;-78
2022/05/31 10:18:25;;;;;;;7.03;2.83;;;17.00;82.20;;;;;;4878029;29;20040;-78
2022/05/31 10:21:03;;;;;;;6.97;3.10;;;17.00;83.40;;;;;;4895510;29;20043;-78
2022/05/31 10:23:44;;;;;;;6.57;2.42;;;17.00;83.60;;;;;;4894836;29;20119;-78
2022/05/31 10:26:24;;;;;;;5.50;2.70;;;16.90;84.10;;;;;;4896391;29;20044;-77
2022/05/31 10:28:58;;;;;;;8.73;3.00;;;16.90;85.20;;;;;;4879516;29;20521;-76
2022/05/31 10:31:34;;;;;;;5.07;2.63;;;16.90;85.70;;;;;;4895530;29;20044;-77
2022/05/31 10:34:21;;;;;;;5.78;2.65;;;16.90;85.30;;;;;;4896938;29;20161;-78
2022/05/31 10:36:54;;;;;;;4.15;2.45;;;16.80;86.90;;;;;;4878707;29;20048;-76
2022/05/31 10:39:32;;;;;;;8.52;2.90;;;16.80;85.90;;;;;;4911786;29;20040;-76
2022/05/31 10:42:00;;;;;;;6.20;2.70;;;16.80;84.90;;;;;;4893766;29;20436;-77
2022/05/31 10:44:32;;;;;;;6.97;2.90;;;16.70;86.70;;;;;;4893837;29;20107;-77
2022/05/31 10:47:10;;;;;;;4.53;2.70;;;16.70;89.50;;;;;;4892439;29;20048;-77
2022/05/31 10:49:37;;;;;;;7.10;2.63;;;16.70;90.90;;;;;;4892914;29;20119;-79
2022/05/31 10:52:27;;;;;;;4.40;2.47;;;16.70;92.20;;;;;;4865027;29;20062;-79
2022/05/31 10:55:25;;;;;;;7.45;2.80;;;16.70;90.60;;;;;;4902061;29;20119;-79
2022/05/31 10:58:35;;;;;;;3.95;2.63;;;16.70;87.80;;;;;;4882985;29;20080;-78
2022/05/31 11:01:23;;;;;;;6.70;3.28;;;16.60;86.40;;;;;;4824871;29;20398;-78
2022/05/31 11:04:10;;;;;;;7.57;3.35;;;16.50;88.80;;;;;;4839348;29;20048;-78
2022/05/31 11:07:16;;;;;;;7.93;3.80;;;16.50;88.30;;;;;;4867618;29;20052;-79
2022/05/31 11:12:56;;;;;;;11.05;4.57;;;16.40;90.20;;;;;;4885638;29;20132;-78
2022/05/31 11:15:41;;;;;;;8.25;4.90;;;16.50;90.80;;;;;;4865339;29;20047;-78
2022/05/31 11:18:44;;;;;;;7.45;4.32;;;16.50;90.40;;;;;;4877090;29;20056;-78
2022/05/31 11:21:22;;;;;;;10.82;4.50;;;16.50;91.20;;;;;;4896260;29;20076;-80
2022/05/31 11:24:11;;;;;;;8.50;4.50;;;16.50;90.50;;;;;;4898163;29;20055;-79
2022/05/31 11:27:05;;;;;;;7.00;4.53;;;16.50;90.00;;;;;;4889293;29;20052;-79
2022/05/31 11:29:37;;;;;;;7.68;4.78;;;16.40;90.50;;;;;;4901040;29;20044;-80
2022/05/31 11:32:35;;;;;;;7.20;4.90;;;16.40;91.60;;;;;;4898897;29;20039;-79
2022/05/31 11:35:30;;;;;;;6.97;4.47;;;16.50;91.00;;;;;;4872385;29;20059;-77
2022/05/31 11:38:03;;;;;;;9.13;4.47;;;16.50;90.70;;;;;;4899971;29;20045;-78
2022/05/31 11:40:41;;;;;;;6.75;4.57;;;16.50;90.60;;;;;;4898185;29;20124;-79
2022/05/31 11:43:32;;;;;;;6.63;4.20;;;16.50;90.10;;;;;;4896626;29;20060;-78
2022/05/31 11:46:28;;;;;;;8.55;4.20;;;16.50;90.00;;;;;;4867617;29;20059;-79
2022/05/31 11:49:02;;;;;;;6.25;4.53;;;16.60;90.20;;;;;;4915164;29;20666;-79
2022/05/31 11:51:46;;;;;;;5.32;3.90;;;16.60;90.10;;;;;;4897017;29;20051;-79
2022/05/31 11:54:30;;;;;;;7.40;4.22;;;16.70;91.20;;;;;;4895780;29;20071;-79
2022/05/31 11:57:15;;;;;;;6.32;3.85;;;16.80;90.90;;;;;;4895924;29;20040;-79
2022/05/31 11:59:47;;;;;;;9.15;3.90;;;16.80;90.80;;;;;;4889072;29;20078;-79
2022/05/31 12:02:34;;;;;;;7.18;3.45;;;16.90;90.60;;;;;;4889515;29;20120;-78
2022/05/31 12:05:09;;;;;;;6.70;3.25;;;17.00;90.20;;;;;;4896649;29;20044;-78
2022/05/31 12:07:42;;;;;;;5.57;3.30;;;17.10;89.70;;;;;;4895798;29;20132;-78
2022/05/31 12:10:16;;;;;;;7.45;3.50;;;17.20;90.10;;;;;;4887181;29;20231;-78
2022/05/31 12:12:44;;;;;;;5.93;3.40;;;17.40;89.70;;;;;;4884385;29;20045;-79
2022/05/31 12:15:21;;;;;;;7.22;3.50;;;17.50;86.70;;;;;;4893587;29;20036;-78
2022/05/31 12:18:06;;;;;;;7.78;3.10;;;17.50;87.40;;;;;;4897435;29;20127;-79
2022/05/31 12:20:41;;;;;;;6.45;3.00;;;17.60;86.80;;;;;;4896019;29;20051;-79
2022/05/31 12:23:07;;;;;;;6.35;3.00;;;17.80;83.80;;;;;;4892358;29;20448;-79
2022/05/31 12:25:54;;;;;;;4.57;2.80;;;17.90;83.90;;;;;;4893526;29;20048;-79
2022/05/31 12:28:50;;;;;;;5.72;3.10;;;18.00;82.40;;;;;;4884407;29;20063;-79
2022/05/31 12:31:28;;;;;;;5.78;3.15;;;18.20;83.40;;;;;;4909969;29;20124;-79
2022/05/31 12:34:13;;;;;;;5.00;3.38;;;18.50;80.80;;;;;;4897645;29;20052;-78
2022/05/31 12:36:59;;;;;;;5.07;2.97;;;18.80;80.20;;;;;;4888961;29;20036;-78
2022/05/31 12:39:29;;;;;;;5.95;2.95;;;19.30;80.40;;;;;;4915088;29;20051;-78
2022/05/31 12:41:55;;;;;;;5.75;2.40;;;19.60;78.60;;;;;;4884394;29;20081;-79
2022/05/31 12:44:35;;;;;;;4.72;2.40;;;19.80;76.20;;;;;;4884523;29;20068;-78
2022/05/31 12:47:18;;;;;;;5.22;2.83;;;19.70;73.00;;;;;;4897883;29;20060;-78
2022/05/31 12:50:04;;;;;;;9.13;3.00;;;19.70;78.20;;;;;;4899064;29;20112;-79
2022/05/31 12:55:31;;;;;;;5.82;2.80;;;19.90;73.70;;;;;;4877076;29;20078;-78
2022/05/31 13:00:51;;;;;;;7.15;2.25;;;20.30;69.20;;;;;;4898666;29;20702;-78
2022/05/31 13:03:32;;;;;;;6.97;2.95;;;20.20;70.00;;;;;;4885572;29;20040;-79
2022/05/31 13:06:36;;;;;;;6.60;3.05;;;20.10;67.20;;;;;;4883085;29;20048;-79
2022/05/31 13:09:23;;;;;;;8.15;2.45;;;20.00;69.20;;;;;;4893421;29;20611;-79
2022/05/31 13:20:39;;;;;;;4.25;2.42;;;19.50;68.50;;;;;;4896978;29;20041;-78
2022/05/31 13:23:11;;;;;;;4.60;2.80;;;19.40;70.70;;;;;;4896313;29;20040;-79
2022/05/31 13:26:03;;;;;;;6.68;2.72;;;19.30;69.20;;;;;;4882442;29;20041;-80
2022/05/31 13:28:36;;;;;;;5.65;2.50;;;19.30;69.10;;;;;;4898870;29;20048;-78
2022/05/31 13:31:11;;;;;;;6.88;3.20;;;19.20;68.90;;;;;;4898459;29;20406;-79
2022/05/31 13:33:38;;;;;;;5.30;2.97;;;19.20;68.40;;;;;;4893566;29;20037;-76
2022/05/31 13:36:32;;;;;;;5.55;3.17;;;19.20;69.00;;;;;;4893956;29;20155;-77
2022/05/31 13:39:05;;;;;;;5.72;3.00;;;19.20;71.40;;;;;;4894445;29;20079;-77
2022/05/31 13:41:32;;;;;;;5.20;2.50;;;19.20;69.50;;;;;;4883175;29;20507;-77
2022/05/31 13:44:03;;;;;;;6.70;2.83;;;19.20;69.70;;;;;;4880165;29;20499;-77
2022/05/31 13:46:29;;;;;;;6.45;3.03;;;19.30;69.10;;;;;;4894554;29;20037;-80
2022/05/31 13:49:03;;;;;;;5.13;2.95;;;19.20;68.60;;;;;;4878370;29;20048;-78
2022/05/31 13:51:31;;;;;;;5.63;2.80;;;19.10;70.20;;;;;;4890654;29;20056;-78